Time;durP1;ratioP1;P1;durP2;ratioP2;P2;SDS_P1;SDS_P2;PMS_P1;PMS_P2;Temp;Humidity;BMP_temperature;BMP_pressure;BME280_temperature;BME280_humidity;BME280_pressure;Samples;Min_cycle;Max_cycle;Signal;HPM_P1;HPM_P2
2022/07/29 00:01:04;;;;;;;12.37;3.63;;;15.50;99.90;;;;;;5263037;28;20204;-50
2022/07/29 00:03:35;;;;;;;5.47;3.43;;;15.50;99.90;;;;;;5279897;28;20917;-51
2022/07/29 00:06:05;;;;;;;6.57;3.70;;;15.50;99.90;;;;;;5269002;28;20216;-50
2022/07/29 00:08:36;;;;;;;6.77;4.37;;;15.40;99.90;;;;;;5287487;28;20300;-50
2022/07/29 00:11:06;;;;;;;7.53;4.27;;;15.50;99.90;;;;;;5267459;28;20205;-50
2022/07/29 00:13:37;;;;;;;4.50;3.37;;;15.40;99.90;;;;;;5288086;28;20221;-50
2022/07/29 00:16:08;;;;;;;7.40;3.43;;;15.40;99.90;;;;;;5271207;28;20247;-51
2022/07/29 00:18:39;;;;;;;5.90;4.30;;;15.30;99.90;;;;;;5272656;28;20247;-52
2022/07/29 00:21:10;;;;;;;5.97;3.40;;;15.30;99.90;;;;;;5282181;28;20200;-51
2022/07/29 00:23:40;;;;;;;4.73;4.30;;;15.30;99.90;;;;;;5271549;28;20489;-49
2022/07/29 00:26:11;;;;;;;12.30;4.33;;;15.20;99.90;;;;;;5272045;28;20181;-49
2022/07/29 00:28:41;;;;;;;12.43;4.67;;;15.20;99.90;;;;;;5281395;28;20243;-49
2022/07/29 00:31:12;;;;;;;6.33;3.47;;;15.20;99.90;;;;;;5271030;28;20211;-51
2022/07/29 00:33:43;;;;;;;14.30;4.20;;;15.20;99.90;;;;;;5286993;28;20200;-50
2022/07/29 00:36:13;;;;;;;9.30;4.17;;;15.20;99.90;;;;;;5278589;28;20546;-51
2022/07/29 00:38:45;;;;;;;9.47;4.07;;;15.10;99.90;;;;;;5280207;28;20193;-50
2022/07/29 00:41:17;;;;;;;7.40;4.17;;;15.10;99.90;;;;;;5279186;28;20182;-51
2022/07/29 00:43:49;;;;;;;10.70;4.13;;;15.10;99.90;;;;;;5281318;28;20467;-50
2022/07/29 00:46:19;;;;;;;7.13;4.93;;;15.10;99.90;;;;;;5268469;28;20461;-50
2022/07/29 00:48:50;;;;;;;7.60;4.37;;;15.10;99.90;;;;;;5285163;28;20462;-51
2022/07/29 00:51:20;;;;;;;7.07;4.00;;;15.10;99.90;;;;;;5282065;28;20360;-51
2022/07/29 00:53:52;;;;;;;4.90;4.23;;;15.00;99.90;;;;;;5288250;28;20223;-50
2022/07/29 00:56:23;;;;;;;9.13;4.20;;;15.00;99.90;;;;;;5260964;28;20583;-50
2022/07/29 00:58:55;;;;;;;4.97;4.47;;;14.90;99.90;;;;;;5277440;28;20493;-48
2022/07/29 01:01:26;;;;;;;9.93;4.07;;;14.90;99.90;;;;;;5281940;28;20669;-48
2022/07/29 01:03:57;;;;;;;13.63;4.03;;;14.90;99.90;;;;;;5278774;28;20465;-49
2022/07/29 01:06:27;;;;;;;10.20;4.00;;;14.80;99.90;;;;;;5284320;28;20438;-50
2022/07/29 01:08:59;;;;;;;7.07;3.60;;;14.80;99.90;;;;;;5278591;28;20667;-52
2022/07/29 01:11:29;;;;;;;4.57;4.10;;;14.80;99.90;;;;;;5267711;28;20200;-50
2022/07/29 01:14:01;;;;;;;7.57;4.37;;;14.80;99.90;;;;;;5271001;28;20430;-52
2022/07/29 01:16:36;;;;;;;7.00;4.70;;;14.70;99.90;;;;;;5269071;28;20173;-49
2022/07/29 01:19:33;;;;;;;7.13;4.30;;;14.70;99.90;;;;;;5265234;28;20508;-50
2022/07/29 01:22:14;;;;;;;7.40;4.20;;;14.70;99.90;;;;;;5267549;28;20959;-50
2022/07/29 01:25:05;;;;;;;8.93;3.93;;;14.70;99.90;;;;;;5280941;27;20441;-49
2022/07/29 01:28:00;;;;;;;6.77;3.70;;;14.70;99.90;;;;;;5278454;28;20458;-50
2022/07/29 01:30:35;;;;;;;4.00;3.65;;;14.70;99.90;;;;;;5268162;28;20814;-50
2022/07/29 01:33:09;;;;;;;9.80;3.60;;;14.60;99.90;;;;;;5270450;28;20490;-49
2022/07/29 01:35:42;;;;;;;5.50;3.47;;;14.60;99.90;;;;;;5271348;28;20434;-50
2022/07/29 01:38:21;;;;;;;5.30;3.43;;;14.60;99.90;;;;;;5283267;27;20474;-49
2022/07/29 01:41:12;;;;;;;5.60;3.83;;;14.60;99.90;;;;;;5268055;28;20813;-50
2022/07/29 01:44:19;;;;;;;7.33;3.80;;;14.60;99.90;;;;;;5282819;27;20435;-49
2022/07/29 01:46:55;;;;;;;4.30;2.93;;;14.60;99.90;;;;;;5271188;28;20474;-49
2022/07/29 01:49:30;;;;;;;9.77;3.37;;;14.60;99.90;;;;;;5286206;28;20453;-48
2022/07/29 01:52:08;;;;;;;3.00;2.87;;;14.50;99.90;;;;;;5265572;28;20984;-52
2022/07/29 01:54:45;;;;;;;7.77;3.30;;;14.50;99.90;;;;;;5271458;28;20464;-49
2022/07/29 01:57:18;;;;;;;5.50;4.00;;;14.50;99.90;;;;;;5281993;27;20550;-48
2022/07/29 01:59:50;;;;;;;3.17;2.90;;;14.50;99.90;;;;;;5283656;28;20430;-49
2022/07/29 02:02:22;;;;;;;5.37;3.63;;;14.40;99.90;;;;;;5287377;27;20677;-50
2022/07/29 02:04:54;;;;;;;5.77;3.60;;;14.40;99.90;;;;;;5267104;28;20440;-50
2022/07/29 02:07:29;;;;;;;4.40;3.00;;;14.30;99.90;;;;;;5262154;28;20452;-50
2022/07/29 02:10:02;;;;;;;3.63;3.10;;;14.30;99.90;;;;;;5264397;28;20446;-49
2022/07/29 02:12:33;;;;;;;6.47;3.17;;;14.30;99.90;;;;;;5265324;28;20516;-49
2022/07/29 02:15:05;;;;;;;6.13;3.57;;;14.20;99.90;;;;;;5286288;28;20899;-49
2022/07/29 02:17:43;;;;;;;3.27;2.70;;;14.20;99.90;;;;;;5280248;28;20453;-50
2022/07/29 02:20:15;;;;;;;3.13;2.73;;;14.20;99.90;;;;;;5283558;28;20434;-48
2022/07/29 02:22:48;;;;;;;3.80;3.50;;;14.10;99.90;;;;;;5283589;27;20443;-49
2022/07/29 02:25:21;;;;;;;3.77;3.47;;;14.10;99.90;;;;;;5265537;28;20529;-49
2022/07/29 02:27:53;;;;;;;3.83;3.50;;;14.00;99.90;;;;;;5278929;28;20464;-51
2022/07/29 02:30:25;;;;;;;6.33;3.80;;;14.00;99.90;;;;;;5266677;27;20445;-49
2022/07/29 02:32:57;;;;;;;5.33;3.40;;;14.00;99.90;;;;;;5266575;28;20559;-49
2022/07/29 02:35:28;;;;;;;6.80;3.37;;;14.00;99.90;;;;;;5254208;28;20785;-50
2022/07/29 02:40:51;;;;;;;6.77;3.97;;;14.00;99.90;;;;;;5280038;28;20480;-49
2022/07/29 02:43:23;;;;;;;9.00;3.70;;;14.00;99.90;;;;;;5279360;28;20441;-55
2022/07/29 02:45:55;;;;;;;4.13;3.77;;;14.10;99.90;;;;;;5285886;27;20438;-50
2022/07/29 02:48:38;;;;;;;6.70;3.47;;;14.10;99.90;;;;;;5284542;27;20482;-49
2022/07/29 02:51:17;;;;;;;5.20;4.30;;;14.10;99.90;;;;;;5269583;28;21033;-50
2022/07/29 02:53:53;;;;;;;4.20;3.80;;;14.10;99.90;;;;;;5285850;28;20434;-48
2022/07/29 02:56:27;;;;;;;6.50;3.93;;;14.10;99.90;;;;;;5268743;28;20457;-49
2022/07/29 02:59:01;;;;;;;6.87;3.87;;;14.10;99.90;;;;;;5281098;28;20454;-49
2022/07/29 03:01:34;;;;;;;6.73;3.77;;;14.20;99.90;;;;;;5263503;28;20504;-50
2022/07/29 03:04:05;;;;;;;3.30;3.00;;;14.20;99.90;;;;;;5284770;28;20427;-50
2022/07/29 03:06:37;;;;;;;4.20;3.40;;;14.20;99.90;;;;;;5265058;27;20441;-49
2022/07/29 03:09:10;;;;;;;7.80;3.43;;;14.20;99.90;;;;;;5262693;28;20490;-50
2022/07/29 03:11:41;;;;;;;4.40;3.30;;;14.30;99.90;;;;;;5265665;28;20543;-49
2022/07/29 03:14:13;;;;;;;6.53;4.03;;;14.30;99.90;;;;;;5285120;28;20434;-50
2022/07/29 03:16:44;;;;;;;3.00;2.80;;;14.30;99.90;;;;;;5267690;28;20438;-48
2022/07/29 03:19:15;;;;;;;8.83;3.20;;;14.40;99.90;;;;;;5277138;28;20461;-49
2022/07/29 03:21:46;;;;;;;3.43;3.23;;;14.40;99.90;;;;;;5262837;28;20219;-48
2022/07/29 03:24:31;;;;;;;4.97;3.43;;;14.40;99.90;;;;;;5264346;28;20891;-53
2022/07/29 03:27:03;;;;;;;6.50;3.27;;;14.50;99.90;;;;;;5278243;28;20181;-50
2022/07/29 03:29:34;;;;;;;11.60;2.63;;;14.50;99.90;;;;;;5244147;22;20520;-44
2022/07/29 03:32:05;;;;;;;5.17;3.23;;;14.50;99.90;;;;;;5243032;28;20896;-44
2022/07/29 03:34:37;;;;;;;7.57;3.30;;;14.40;99.90;;;;;;5244899;28;20565;-46
2022/07/29 03:37:08;;;;;;;4.10;3.37;;;14.50;99.90;;;;;;5242187;28;20448;-48
2022/07/29 03:39:41;;;;;;;7.00;3.57;;;14.50;99.90;;;;;;5242762;28;20457;-45
2022/07/29 03:42:13;;;;;;;6.63;2.83;;;14.50;99.90;;;;;;5253224;28;20677;-46
2022/07/29 03:44:47;;;;;;;3.43;3.07;;;14.50;99.90;;;;;;5244057;28;20831;-45
2022/07/29 03:47:23;;;;;;;3.13;2.93;;;14.50;99.90;;;;;;5230752;28;20554;-44
2022/07/29 03:49:59;;;;;;;6.27;3.57;;;14.50;99.90;;;;;;5239624;28;20440;-44
2022/07/29 03:52:30;;;;;;;8.97;3.27;;;14.50;99.90;;;;;;5245603;28;20478;-45
2022/07/29 03:55:02;;;;;;;7.90;3.90;;;14.50;99.90;;;;;;5233534;28;20441;-46
2022/07/29 03:57:34;;;;;;;10.63;3.67;;;14.60;99.90;;;;;;5211293;28;21008;-45
2022/07/29 04:00:06;;;;;;;7.27;3.80;;;14.60;99.90;;;;;;5234782;28;20440;-47
2022/07/29 04:02:38;;;;;;;4.67;3.50;;;14.60;99.90;;;;;;5254941;28;20428;-44
2022/07/29 04:05:12;;;;;;;5.10;4.00;;;14.60;99.90;;;;;;5242543;28;20490;-45
2022/07/29 04:07:47;;;;;;;5.80;3.30;;;14.70;99.90;;;;;;5242944;28;20819;-45
2022/07/29 04:10:22;;;;;;;4.50;3.57;;;14.70;99.90;;;;;;5253458;28;20435;-45
2022/07/29 04:12:53;;;;;;;6.33;3.13;;;14.80;99.90;;;;;;5242479;28;21022;-45
2022/07/29 04:15:24;;;;;;;7.10;3.90;;;14.90;99.90;;;;;;5244558;28;20432;-45
2022/07/29 04:17:55;;;;;;;3.90;3.13;;;14.90;99.90;;;;;;5233066;28;20194;-45
2022/07/29 04:20:25;;;;;;;2.70;2.30;;;15.00;99.90;;;;;;5242907;28;20262;-44
2022/07/29 04:22:56;;;;;;;8.97;3.70;;;15.10;99.90;;;;;;5237713;28;20532;-45
2022/07/29 04:25:27;;;;;;;4.23;2.30;;;15.10;99.90;;;;;;5238148;28;20186;-44
2022/07/29 04:28:00;;;;;;;3.30;2.97;;;15.20;99.90;;;;;;5241302;28;20229;-44
2022/07/29 04:30:32;;;;;;;7.00;3.37;;;15.30;99.90;;;;;;5243992;28;20194;-45
2022/07/29 04:33:05;;;;;;;11.20;2.63;;;15.40;99.90;;;;;;5246000;28;20886;-45
2022/07/29 04:35:37;;;;;;;5.90;2.33;;;15.40;99.90;;;;;;5242348;28;20544;-45
2022/07/29 04:38:07;;;;;;;7.57;3.03;;;15.50;99.90;;;;;;5242215;28;20457;-45
2022/07/29 04:40:38;;;;;;;3.27;3.00;;;15.60;99.90;;;;;;5233952;28;20971;-44
2022/07/29 04:43:08;;;;;;;5.53;3.10;;;15.60;99.90;;;;;;5240663;28;20179;-44
2022/07/29 04:45:39;;;;;;;4.20;2.60;;;15.70;99.90;;;;;;5248121;28;20210;-45
2022/07/29 04:48:10;;;;;;;17.10;3.50;;;15.80;99.90;;;;;;5252844;28;20202;-49
2022/07/29 04:50:41;;;;;;;4.87;3.30;;;15.80;99.90;;;;;;5247534;28;20178;-45
2022/07/29 04:53:12;;;;;;;6.50;3.33;;;15.90;99.90;;;;;;5245944;28;20265;-45
2022/07/29 04:55:43;;;;;;;8.33;3.50;;;15.90;99.90;;;;;;5237852;28;20182;-46
2022/07/29 04:58:14;;;;;;;5.07;2.80;;;15.90;99.90;;;;;;5243995;28;20279;-46
2022/07/29 05:00:45;;;;;;;5.50;3.10;;;16.00;99.90;;;;;;5247832;28;20437;-46
2022/07/29 05:03:15;;;;;;;14.80;3.30;;;16.00;99.90;;;;;;5244330;28;20264;-45
2022/07/29 05:05:46;;;;;;;4.20;3.37;;;16.00;99.90;;;;;;5243479;28;20251;-45
2022/07/29 05:08:17;;;;;;;4.93;2.90;;;16.10;99.90;;;;;;5239745;28;20199;-46
2022/07/29 05:10:47;;;;;;;9.20;3.47;;;16.20;99.90;;;;;;5239103;28;20178;-45
2022/07/29 05:13:18;;;;;;;12.03;2.70;;;16.30;99.90;;;;;;5242442;28;20639;-46
2022/07/29 05:15:48;;;;;;;15.00;4.10;;;16.50;99.90;;;;;;5244636;28;20178;-47
2022/07/29 05:18:19;;;;;;;3.70;3.30;;;16.80;99.90;;;;;;5248915;28;20288;-45
2022/07/29 05:20:50;;;;;;;3.70;2.60;;;17.20;99.90;;;;;;5258812;28;20819;-46
2022/07/29 05:23:21;;;;;;;8.13;2.50;;;17.60;99.90;;;;;;5240654;28;20210;-48
2022/07/29 05:25:51;;;;;;;4.67;2.87;;;17.80;99.90;;;;;;5239537;28;20190;-47
2022/07/29 05:28:22;;;;;;;5.23;2.77;;;17.90;99.90;;;;;;5241289;28;20576;-45
2022/07/29 05:30:52;;;;;;;7.10;2.80;;;18.50;99.70;;;;;;5243535;28;20247;-44
2022/07/29 05:33:23;;;;;;;3.87;2.70;;;18.60;98.20;;;;;;5244930;28;20197;-45
2022/07/29 05:35:53;;;;;;;3.20;2.50;;;18.50;97.00;;;;;;5243934;28;20179;-46
2022/07/29 05:38:24;;;;;;;2.93;2.73;;;18.40;97.10;;;;;;5238482;28;20225;-46
2022/07/29 05:40:57;;;;;;;8.53;2.50;;;18.60;96.00;;;;;;5236324;28;20175;-44
2022/07/29 05:43:28;;;;;;;2.67;2.43;;;18.40;95.60;;;;;;5248335;28;20664;-46
2022/07/29 05:45:59;;;;;;;6.40;2.83;;;18.10;96.00;;;;;;5249763;28;20433;-46
2022/07/29 05:48:30;;;;;;;8.40;2.47;;;17.80;96.50;;;;;;5244900;28;20230;-50
2022/07/29 05:51:00;;;;;;;2.90;2.70;;;17.50;97.70;;;;;;5242898;28;20210;-46
2022/07/29 05:53:31;;;;;;;4.43;2.27;;;17.30;98.30;;;;;;5244717;28;20192;-48
2022/07/29 05:56:05;;;;;;;8.33;2.30;;;17.10;99.10;;;;;;5245405;28;20184;-48
2022/07/29 05:58:36;;;;;;;2.90;2.60;;;17.00;99.60;;;;;;5247696;28;20208;-46
2022/07/29 06:01:06;;;;;;;3.80;2.70;;;17.10;99.90;;;;;;5242926;28;20438;-46
2022/07/29 06:03:37;;;;;;;11.07;3.00;;;17.20;99.90;;;;;;5246507;28;20182;-46
2022/07/29 06:06:08;;;;;;;7.63;3.03;;;17.40;99.80;;;;;;5234678;28;20287;-47
2022/07/29 06:08:40;;;;;;;7.80;3.70;;;17.80;99.10;;;;;;5244368;28;20867;-45
2022/07/29 06:11:10;;;;;;;2.10;2.00;;;18.30;97.40;;;;;;5245952;28;20236;-46
2022/07/29 06:13:41;;;;;;;4.93;2.70;;;18.60;95.90;;;;;;5243757;28;20448;-47
2022/07/29 06:16:11;;;;;;;2.40;2.00;;;18.90;94.50;;;;;;5241383;28;20189;-46
2022/07/29 06:18:42;;;;;;;5.87;2.90;;;19.30;93.00;;;;;;5240937;28;20539;-46
2022/07/29 06:21:13;;;;;;;3.30;3.00;;;19.80;90.80;;;;;;5261205;28;20186;-47
2022/07/29 06:23:44;;;;;;;6.50;2.40;;;20.90;86.40;;;;;;5243197;28;20286;-46
2022/07/29 06:26:16;;;;;;;3.40;3.10;;;23.10;70.80;;;;;;5242760;28;20183;-46
2022/07/29 06:28:46;;;;;;;5.73;2.53;;;25.30;56.00;;;;;;5246494;28;20471;-46
2022/07/29 06:31:17;;;;;;;2.87;2.67;;;26.00;50.30;;;;;;5229138;28;20829;-48
2022/07/29 06:33:47;;;;;;;3.13;1.93;;;25.90;49.00;;;;;;5238933;28;20209;-49
2022/07/29 06:36:18;;;;;;;7.33;2.57;;;25.20;49.30;;;;;;5235636;28;20261;-46
2022/07/29 06:38:48;;;;;;;2.53;2.27;;;24.10;50.50;;;;;;5258474;28;20202;-47
2022/07/29 06:41:19;;;;;;;2.90;2.70;;;23.20;52.40;;;;;;5233499;28;20681;-47
2022/07/29 06:43:51;;;;;;;3.90;2.13;;;22.50;54.10;;;;;;5245918;28;20179;-47
2022/07/29 06:46:22;;;;;;;7.80;2.73;;;22.00;55.30;;;;;;5240766;28;20183;-48
2022/07/29 06:48:53;;;;;;;4.80;2.50;;;21.50;56.60;;;;;;5242029;28;20445;-48
2022/07/29 06:51:24;;;;;;;9.17;2.33;;;21.10;57.90;;;;;;5241690;28;20552;-46
2022/07/29 06:53:57;;;;;;;2.43;2.23;;;20.90;58.70;;;;;;5249040;28;20526;-46
2022/07/29 06:56:28;;;;;;;6.90;2.43;;;20.70;59.10;;;;;;5242732;28;20189;-45
2022/07/29 06:58:58;;;;;;;7.27;2.73;;;20.50;59.80;;;;;;5246459;28;20799;-45
2022/07/29 07:01:29;;;;;;;7.00;3.13;;;20.50;60.80;;;;;;5241824;28;20238;-43
2022/07/29 07:04:00;;;;;;;15.73;2.90;;;20.50;60.60;;;;;;5249614;28;20177;-45
2022/07/29 07:06:30;;;;;;;9.67;2.93;;;20.40;61.30;;;;;;5241634;28;20179;-44
2022/07/29 07:09:01;;;;;;;10.10;2.80;;;20.40;62.10;;;;;;5244934;28;20210;-45
2022/07/29 07:11:32;;;;;;;19.93;2.90;;;20.40;61.60;;;;;;5230377;28;20203;-44
2022/07/29 07:14:02;;;;;;;6.83;2.53;;;20.40;62.20;;;;;;5242454;28;20182;-46
2022/07/29 07:16:33;;;;;;;5.73;2.53;;;20.80;61.70;;;;;;5247661;28;20185;-45
2022/07/29 07:19:04;;;;;;;2.10;1.90;;;21.90;59.10;;;;;;5235044;28;20716;-44
2022/07/29 07:21:35;;;;;;;5.23;1.80;;;22.90;56.50;;;;;;5244640;28;20190;-47
2022/07/29 07:24:06;;;;;;;2.57;2.23;;;23.60;54.80;;;;;;5245789;28;20194;-47
2022/07/29 07:26:37;;;;;;;2.57;2.43;;;24.30;52.90;;;;;;5246031;28;20510;-48
2022/07/29 07:29:08;;;;;;;2.10;2.00;;;25.20;50.10;;;;;;5239757;28;20483;-47
2022/07/29 07:31:39;;;;;;;2.40;2.23;;;25.90;48.60;;;;;;5245630;28;20947;-46
2022/07/29 07:34:09;;;;;;;3.47;2.03;;;26.90;46.80;;;;;;5244081;28;20300;-47
2022/07/29 07:36:40;;;;;;;5.87;2.17;;;27.50;44.50;;;;;;5252784;28;20210;-47
2022/07/29 07:39:10;;;;;;;7.57;2.23;;;28.00;43.20;;;;;;5246961;28;20202;-46
2022/07/29 07:41:41;;;;;;;4.83;2.20;;;28.60;41.20;;;;;;5244813;28;20194;-50
2022/07/29 07:44:11;;;;;;;2.77;1.90;;;29.20;40.60;;;;;;5238721;28;20240;-45
2022/07/29 07:46:42;;;;;;;2.47;1.57;;;30.60;38.10;;;;;;5255547;28;20185;-49
2022/07/29 07:49:13;;;;;;;7.83;2.33;;;32.20;35.20;;;;;;5243791;28;20212;-47
2022/07/29 07:51:43;;;;;;;4.80;1.50;;;32.90;32.70;;;;;;5240548;28;20225;-46
2022/07/29 07:54:14;;;;;;;3.30;1.67;;;33.20;31.60;;;;;;5244995;28;20196;-46
2022/07/29 07:56:44;;;;;;;4.30;2.30;;;32.90;31.40;;;;;;5245804;28;20238;-48
2022/07/29 07:59:16;;;;;;;7.80;1.60;;;33.10;31.00;;;;;;5237168;28;20197;-47
2022/07/29 08:01:46;;;;;;;5.87;2.30;;;33.20;30.40;;;;;;5238959;28;20218;-45
2022/07/29 08:04:17;;;;;;;3.37;2.13;;;33.00;30.00;;;;;;5231710;28;20535;-45
2022/07/29 08:06:49;;;;;;;7.50;2.17;;;32.50;30.90;;;;;;5238561;28;20194;-46
2022/07/29 08:09:21;;;;;;;4.57;2.40;;;32.50;30.40;;;;;;5245958;28;20690;-46
2022/07/29 08:11:51;;;;;;;2.50;1.27;;;32.50;31.20;;;;;;5244365;28;20459;-47
2022/07/29 08:14:22;;;;;;;5.07;1.80;;;32.80;30.00;;;;;;5231111;28;20440;-47
2022/07/29 08:16:53;;;;;;;2.73;1.40;;;33.10;29.90;;;;;;5239810;28;20178;-47
2022/07/29 08:19:24;;;;;;;1.70;1.60;;;33.10;29.60;;;;;;5241643;28;20216;-46
2022/07/29 08:21:54;;;;;;;3.87;1.87;;;32.80;29.20;;;;;;5238460;28;20444;-46
2022/07/29 08:24:43;;;;;;;2.40;1.57;;;32.90;29.50;;;;;;5241911;28;20190;-46
2022/07/29 08:27:14;;;;;;;6.93;1.80;;;32.70;29.50;;;;;;5241366;28;20251;-45
2022/07/29 08:29:44;;;;;;;9.73;2.13;;;33.10;29.50;;;;;;5250233;28;20480;-46
2022/07/29 08:32:15;;;;;;;2.77;1.60;;;33.60;29.00;;;;;;5246780;28;20209;-46
2022/07/29 08:34:46;;;;;;;16.30;2.50;;;33.80;28.80;;;;;;5247214;28;20190;-47
2022/07/29 08:37:16;;;;;;;2.27;1.50;;;34.10;27.90;;;;;;5243387;28;20186;-45
2022/07/29 08:39:47;;;;;;;5.83;1.80;;;33.90;28.10;;;;;;5243965;28;20522;-50
2022/07/29 08:42:18;;;;;;;4.47;1.50;;;33.60;28.60;;;;;;5238242;28;20174;-48
2022/07/29 08:44:50;;;;;;;4.77;1.30;;;33.60;28.50;;;;;;5240025;28;20281;-51
2022/07/29 08:47:21;;;;;;;2.97;1.83;;;33.20;27.90;;;;;;5246467;28;20463;-47
2022/07/29 08:49:51;;;;;;;5.57;1.63;;;32.00;29.20;;;;;;5246616;28;20464;-49
2022/07/29 08:52:25;;;;;;;2.77;1.40;;;31.50;29.40;;;;;;5236122;28;20211;-49
2022/07/29 08:54:56;;;;;;;1.70;1.60;;;31.20;29.90;;;;;;5262626;28;20178;-49
2022/07/29 08:57:27;;;;;;;2.00;1.60;;;30.30;30.30;;;;;;5239457;28;20480;-48
2022/07/29 09:00:00;;;;;;;2.93;1.60;;;29.40;31.60;;;;;;5242896;28;20977;-48
2022/07/29 09:02:38;;;;;;;2.70;2.10;;;28.30;33.70;;;;;;5237299;28;20794;-49
2022/07/29 09:05:09;;;;;;;1.73;1.63;;;27.10;35.00;;;;;;5246400;28;20444;-48
2022/07/29 09:07:42;;;;;;;4.40;1.50;;;26.00;36.50;;;;;;5243926;28;20529;-50
2022/07/29 09:10:13;;;;;;;5.00;2.03;;;25.40;37.50;;;;;;5236668;28;20178;-50
2022/07/29 09:12:44;;;;;;;11.50;2.33;;;24.90;39.40;;;;;;5243917;28;20474;-47
2022/07/29 09:15:15;;;;;;;3.00;1.90;;;24.70;40.10;;;;;;5248938;28;20181;-48
2022/07/29 09:17:48;;;;;;;5.23;1.90;;;24.80;40.50;;;;;;5242425;28;20615;-48
2022/07/29 09:20:22;;;;;;;1.90;1.80;;;25.20;39.50;;;;;;5244730;28;20182;-49
2022/07/29 09:22:53;;;;;;;2.87;2.20;;;25.30;38.80;;;;;;5242330;28;20428;-48
2022/07/29 09:25:34;;;;;;;2.33;1.83;;;25.40;38.80;;;;;;5242849;28;20436;-49
2022/07/29 09:28:13;;;;;;;7.30;1.70;;;25.40;38.90;;;;;;5256885;22;20487;-49
2022/07/29 09:30:52;;;;;;;3.33;1.53;;;25.10;39.30;;;;;;5259378;28;21230;-48
2022/07/29 09:33:34;;;;;;;5.93;1.93;;;25.20;38.90;;;;;;5263109;28;20436;-48
2022/07/29 09:36:09;;;;;;;2.53;2.30;;;25.20;38.90;;;;;;5266396;28;20803;-49
2022/07/29 09:38:39;;;;;;;2.20;1.40;;;25.40;38.90;;;;;;5263896;28;20452;-50
2022/07/29 09:41:10;;;;;;;6.63;1.80;;;25.60;38.20;;;;;;5264792;28;20444;-48
2022/07/29 09:43:56;;;;;;;2.43;1.83;;;25.70;38.60;;;;;;5265972;28;20610;-48
2022/07/29 09:46:27;;;;;;;9.20;1.87;;;25.80;37.80;;;;;;5262477;28;20197;-49
2022/07/29 09:49:12;;;;;;;3.70;1.57;;;25.80;37.40;;;;;;5260684;28;20459;-47
2022/07/29 09:51:43;;;;;;;4.53;1.47;;;25.50;37.10;;;;;;5280471;28;20620;-49
2022/07/29 09:54:25;;;;;;;2.20;1.30;;;25.40;37.50;;;;;;5260117;28;20525;-49
2022/07/29 09:56:56;;;;;;;11.23;2.20;;;25.20;38.20;;;;;;5260651;28;20283;-48
2022/07/29 09:59:27;;;;;;;9.00;2.57;;;25.10;38.40;;;;;;5260349;28;20787;-47
2022/07/29 10:01:59;;;;;;;8.50;1.40;;;25.30;38.40;;;;;;5256310;28;20627;-49
2022/07/29 10:04:40;;;;;;;1.60;1.50;;;25.30;38.10;;;;;;5250956;28;20818;-49
2022/07/29 10:07:11;;;;;;;2.77;2.50;;;25.40;37.90;;;;;;5263189;28;20496;-48
2022/07/29 10:09:56;;;;;;;1.40;1.30;;;25.40;37.50;;;;;;5264575;28;20471;-47
2022/07/29 10:12:27;;;;;;;2.47;1.90;;;25.80;36.30;;;;;;5253408;28;20569;-49
2022/07/29 10:14:58;;;;;;;2.03;1.30;;;26.10;36.30;;;;;;5259768;28;20492;-49
2022/07/29 10:17:29;;;;;;;1.40;1.27;;;26.30;35.60;;;;;;5260790;28;20782;-49
2022/07/29 10:19:59;;;;;;;2.83;1.90;;;26.00;36.00;;;;;;5265058;28;20250;-47
2022/07/29 10:22:30;;;;;;;7.27;1.97;;;25.70;35.50;;;;;;5259343;28;20189;-51
2022/07/29 10:25:01;;;;;;;4.03;1.30;;;25.70;36.00;;;;;;5269194;28;20532;-49
2022/07/29 10:27:32;;;;;;;1.67;1.60;;;25.70;36.60;;;;;;5262016;28;20182;-49
2022/07/29 10:30:04;;;;;;;2.00;1.17;;;25.90;35.90;;;;;;5259382;28;20483;-50
2022/07/29 10:32:53;;;;;;;2.40;1.30;;;26.00;35.00;;;;;;5252510;28;20335;-47
2022/07/29 10:35:42;;;;;;;6.90;1.30;;;26.00;35.00;;;;;;5265176;28;20436;-50
2022/07/29 10:38:25;;;;;;;0.90;0.90;;;26.00;34.70;;;;;;5257577;28;20478;-49
2022/07/29 10:41:28;;;;;;;4.43;1.50;;;25.90;34.20;;;;;;5257233;28;20428;-48
2022/07/29 10:44:05;;;;;;;3.80;1.27;;;25.80;33.90;;;;;;5245487;28;20446;-49
2022/07/29 10:46:38;;;;;;;2.60;1.70;;;25.70;35.00;;;;;;5256770;28;20522;-48
2022/07/29 10:49:15;;;;;;;1.70;1.50;;;25.80;35.80;;;;;;5258714;28;20459;-50
2022/07/29 10:52:09;;;;;;;6.90;2.10;;;25.90;35.60;;;;;;5263053;28;20998;-48
2022/07/29 10:54:42;;;;;;;1.90;1.77;;;26.20;34.80;;;;;;5255841;28;20428;-50
2022/07/29 10:57:17;;;;;;;5.27;1.23;;;26.50;34.50;;;;;;5255059;28;20432;-48
2022/07/29 11:00:11;;;;;;;1.13;1.13;;;26.40;34.20;;;;;;5253692;28;20451;-50
2022/07/29 11:02:43;;;;;;;2.30;1.57;;;26.20;34.50;;;;;;5252664;28;20927;-48
2022/07/29 11:05:19;;;;;;;1.40;1.30;;;26.20;34.40;;;;;;5259128;28;20506;-48
2022/07/29 11:08:23;;;;;;;3.43;1.50;;;26.20;34.70;;;;;;5257891;28;20439;-48
2022/07/29 11:11:19;;;;;;;2.93;1.50;;;26.20;35.50;;;;;;5256308;28;20456;-49
2022/07/29 11:13:54;;;;;;;2.13;2.00;;;26.20;35.30;;;;;;5256694;28;20445;-48
2022/07/29 11:16:25;;;;;;;1.70;1.60;;;26.20;35.40;;;;;;5258634;28;20910;-48
2022/07/29 11:19:11;;;;;;;2.90;1.60;;;26.10;35.30;;;;;;5254484;28;20494;-50
2022/07/29 11:21:46;;;;;;;1.20;1.20;;;26.20;35.50;;;;;;5251939;28;20189;-49
2022/07/29 11:24:23;;;;;;;1.50;1.33;;;26.20;34.90;;;;;;5251724;28;20923;-48
2022/07/29 11:27:14;;;;;;;3.50;1.23;;;26.20;35.60;;;;;;5255262;28;20566;-49
2022/07/29 11:29:51;;;;;;;3.80;1.50;;;26.30;35.40;;;;;;5247422;28;20475;-50
2022/07/29 11:32:24;;;;;;;1.43;1.43;;;26.60;35.60;;;;;;5253883;28;20463;-49
2022/07/29 11:35:22;;;;;;;1.50;1.40;;;26.70;35.40;;;;;;5254904;28;20428;-48
2022/07/29 11:38:20;;;;;;;6.23;1.53;;;26.80;35.20;;;;;;5255461;28;20494;-50
2022/07/29 11:41:17;;;;;;;1.80;1.70;;;26.80;35.30;;;;;;5257038;28;20444;-48
2022/07/29 11:43:50;;;;;;;6.53;1.50;;;26.90;35.10;;;;;;5248817;28;20531;-50
2022/07/29 11:46:50;;;;;;;2.53;1.57;;;27.00;35.60;;;;;;5256796;28;20954;-49
2022/07/29 11:49:23;;;;;;;1.73;1.63;;;27.30;35.40;;;;;;5265437;28;20460;-50
2022/07/29 11:51:56;;;;;;;7.83;1.97;;;27.20;35.50;;;;;;5268702;28;20463;-49
2022/07/29 11:54:33;;;;;;;2.00;1.90;;;27.20;36.30;;;;;;5263328;28;20431;-50
2022/07/29 11:57:07;;;;;;;1.77;1.67;;;27.20;36.00;;;;;;5258439;28;20435;-50
2022/07/29 11:59:42;;;;;;;1.87;1.73;;;27.00;36.40;;;;;;5264690;28;20867;-47
2022/07/29 12:02:13;;;;;;;2.40;1.77;;;26.80;36.50;;;;;;5259177;28;20446;-48
2022/07/29 12:04:51;;;;;;;2.27;2.17;;;26.50;37.00;;;;;;5259751;28;20943;-50
2022/07/29 12:07:29;;;;;;;5.60;2.10;;;26.30;38.10;;;;;;5259959;28;20431;-48
2022/07/29 12:10:01;;;;;;;2.40;1.63;;;26.30;38.60;;;;;;5259948;28;20478;-50
2022/07/29 12:12:33;;;;;;;6.70;2.17;;;26.30;38.90;;;;;;5263514;28;20475;-50
2022/07/29 12:15:11;;;;;;;2.60;1.20;;;26.50;39.00;;;;;;5264353;28;20439;-50
2022/07/29 12:17:43;;;;;;;2.57;2.23;;;26.60;39.00;;;;;;5258181;28;20434;-51
2022/07/29 12:20:27;;;;;;;6.80;2.10;;;26.60;39.20;;;;;;5260243;28;20431;-49
2022/07/29 12:22:58;;;;;;;10.23;2.23;;;26.60;39.30;;;;;;5258966;28;20965;-48
2022/07/29 12:25:33;;;;;;;2.00;1.97;;;26.60;39.80;;;;;;5261133;28;20435;-48
2022/07/29 12:28:12;;;;;;;3.00;2.70;;;26.70;40.10;;;;;;5255896;28;20208;-50
2022/07/29 12:30:51;;;;;;;2.93;2.10;;;26.60;40.20;;;;;;5256516;28;20443;-50
2022/07/29 12:33:23;;;;;;;3.07;2.27;;;26.60;40.30;;;;;;5258220;28;22059;-49
2022/07/29 12:36:00;;;;;;;7.40;2.40;;;26.70;40.60;;;;;;5259275;28;20725;-49
2022/07/29 12:38:31;;;;;;;4.57;2.60;;;26.70;41.20;;;;;;5264480;28;20846;-49
2022/07/29 12:41:03;;;;;;;2.37;2.27;;;26.70;41.20;;;;;;5259839;28;20437;-48
2022/07/29 12:43:34;;;;;;;9.83;2.10;;;26.60;41.10;;;;;;5257304;28;20436;-50
2022/07/29 12:46:15;;;;;;;4.70;2.70;;;26.60;41.20;;;;;;5252088;28;20436;-49
2022/07/29 12:48:54;;;;;;;2.70;2.50;;;26.70;40.80;;;;;;5253206;28;20198;-48
2022/07/29 12:51:38;;;;;;;2.33;2.13;;;26.80;40.50;;;;;;5258189;28;20474;-48
2022/07/29 12:54:15;;;;;;;2.13;2.03;;;26.90;40.60;;;;;;5260255;28;20840;-48
2022/07/29 12:56:46;;;;;;;4.93;2.20;;;27.00;40.60;;;;;;5258578;28;20459;-49
2022/07/29 12:59:21;;;;;;;4.10;2.57;;;26.90;40.50;;;;;;5252672;28;20547;-48
2022/07/29 13:01:52;;;;;;;2.47;2.27;;;26.80;40.70;;;;;;5260294;28;20230;-51
2022/07/29 13:04:28;;;;;;;3.50;2.50;;;26.70;41.00;;;;;;5259897;28;20786;-50
2022/07/29 13:07:08;;;;;;;1.63;1.60;;;26.80;40.60;;;;;;5271675;28;20640;-48
2022/07/29 13:09:48;;;;;;;3.50;2.23;;;26.80;40.60;;;;;;5265781;28;20458;-50
2022/07/29 13:12:20;;;;;;;6.80;2.53;;;27.00;40.20;;;;;;5265043;28;20459;-50
2022/07/29 13:14:51;;;;;;;2.60;2.40;;;27.20;40.40;;;;;;5254798;28;20604;-50
2022/07/29 13:17:27;;;;;;;2.93;2.73;;;27.30;40.20;;;;;;5260641;28;21018;-49
2022/07/29 13:20:12;;;;;;;4.20;2.63;;;27.30;39.70;;;;;;5261384;28;20201;-49
2022/07/29 13:22:42;;;;;;;2.20;2.00;;;27.40;39.70;;;;;;5260630;28;20428;-50